Time;durP1;ratioP1;P1;durP2;ratioP2;P2;SDS_P1;SDS_P2;PMS_P1;PMS_P2;Temp;Humidity;BMP_temperature;BMP_pressure;BME280_temperature;BME280_humidity;BME280_pressure;Samples;Min_cycle;Max_cycle;Signal;HPM_P1;HPM_P2
2024/01/25 00:00:20;;;;;;;2.63;1.15;;;17.90;99.90;;;;;;4593333;19;20002;-75
2024/01/25 00:02:13;;;;;;;3.33;1.40;;;17.90;99.90;;;;;;4591938;19;20010;-74
2024/01/25 00:03:46;;;;;;;2.08;0.98;;;17.90;99.90;;;;;;4593588;19;20361;-74
2024/01/25 00:05:19;;;;;;;2.78;1.17;;;17.90;99.90;;;;;;4592985;19;20002;-74
2024/01/25 00:06:52;;;;;;;1.70;1.20;;;17.90;99.90;;;;;;4593411;19;20006;-74
2024/01/25 00:08:25;;;;;;;2.22;1.20;;;18.00;99.90;;;;;;4593533;19;20009;-74
2024/01/25 00:09:58;;;;;;;2.22;1.33;;;18.00;99.90;;;;;;4593569;19;20081;-75
2024/01/25 00:11:31;;;;;;;2.65;1.33;;;18.00;99.90;;;;;;4593412;19;20002;-74
2024/01/25 00:13:04;;;;;;;3.53;1.52;;;18.00;99.90;;;;;;4593455;19;20309;-74
2024/01/25 00:14:37;;;;;;;2.63;1.10;;;18.00;99.90;;;;;;4593197;19;20006;-74
2024/01/25 00:16:10;;;;;;;3.28;1.75;;;18.00;99.90;;;;;;4592538;19;20295;-74
2024/01/25 00:17:43;;;;;;;4.03;1.35;;;18.00;99.90;;;;;;4593256;19;20025;-74
2024/01/25 00:19:15;;;;;;;2.25;1.15;;;18.00;99.90;;;;;;4593053;19;20430;-74
2024/01/25 00:20:48;;;;;;;2.85;1.40;;;18.00;99.90;;;;;;4592567;19;20441;-74
2024/01/25 00:22:21;;;;;;;2.78;1.17;;;18.00;99.90;;;;;;4593181;19;20442;-74
2024/01/25 00:23:54;;;;;;;2.45;1.25;;;18.00;99.90;;;;;;4592935;19;19995;-74
2024/01/25 00:25:27;;;;;;;3.83;1.20;;;18.00;99.90;;;;;;4592874;19;20041;-74
2024/01/25 00:27:00;;;;;;;2.20;1.13;;;18.10;99.90;;;;;;4591594;19;20035;-74
2024/01/25 00:28:33;;;;;;;3.25;1.13;;;18.00;99.90;;;;;;4592512;19;20003;-74
2024/01/25 00:30:06;;;;;;;2.40;1.40;;;18.00;99.90;;;;;;4593133;19;19998;-74
2024/01/25 00:31:39;;;;;;;2.35;1.17;;;18.00;99.90;;;;;;4591746;19;20323;-74
2024/01/25 00:33:12;;;;;;;2.13;1.15;;;18.10;99.90;;;;;;4590107;19;20006;-74
2024/01/25 00:34:45;;;;;;;1.98;1.08;;;18.10;99.90;;;;;;4593009;19;19998;-74
2024/01/25 00:36:18;;;;;;;2.33;1.10;;;18.10;99.90;;;;;;4590435;19;20238;-75
2024/01/25 00:37:51;;;;;;;1.75;1.02;;;18.10;99.90;;;;;;4592300;19;20010;-74
2024/01/25 00:39:23;;;;;;;1.60;1.00;;;18.10;99.90;;;;;;4592855;19;20313;-74
2024/01/25 00:40:57;;;;;;;2.38;1.15;;;18.10;99.90;;;;;;4592214;19;20003;-74
2024/01/25 00:42:29;;;;;;;1.20;0.93;;;18.10;99.90;;;;;;4592842;19;20370;-74
2024/01/25 00:44:02;;;;;;;3.30;1.25;;;18.10;99.90;;;;;;4592824;19;20005;-74
2024/01/25 00:45:35;;;;;;;1.95;1.23;;;18.10;99.90;;;;;;4592331;19;20013;-74
2024/01/25 00:47:09;;;;;;;2.30;0.93;;;18.10;99.90;;;;;;4592838;19;19994;-74
2024/01/25 00:48:42;;;;;;;2.13;1.00;;;18.10;99.90;;;;;;4592712;19;20066;-74
2024/01/25 00:50:20;;;;;;;1.75;1.00;;;18.10;99.90;;;;;;4592513;19;20025;-74
2024/01/25 00:51:58;;;;;;;1.95;1.08;;;18.10;99.90;;;;;;4591404;19;20013;-74
2024/01/25 00:53:32;;;;;;;2.42;0.93;;;18.10;99.90;;;;;;4592470;19;20006;-74
2024/01/25 00:55:06;;;;;;;2.65;1.20;;;18.10;99.90;;;;;;4592334;19;20041;-74
2024/01/25 00:56:39;;;;;;;4.50;1.25;;;18.20;99.90;;;;;;4592304;19;20080;-74
2024/01/25 00:58:12;;;;;;;2.72;1.20;;;18.10;99.90;;;;;;4592323;19;20002;-74
2024/01/25 00:59:45;;;;;;;1.88;0.95;;;18.10;99.90;;;;;;4592283;19;20031;-74
2024/01/25 01:10:40;;;;;;;1.85;0.80;;;18.20;99.90;;;;;;4557115;19;20021;-75
2024/01/25 01:12:19;;;;;;;2.00;1.10;;;18.20;99.90;;;;;;4589014;19;20011;-75
2024/01/25 01:13:58;;;;;;;2.58;1.13;;;18.20;99.90;;;;;;4590052;19;20010;-75
2024/01/25 01:15:37;;;;;;;2.15;0.90;;;18.20;99.90;;;;;;4590266;19;20010;-75
2024/01/25 01:17:18;;;;;;;2.47;1.10;;;18.20;99.90;;;;;;4590770;19;20393;-74
2024/01/25 01:19:05;;;;;;;2.08;0.88;;;18.20;99.90;;;;;;4590090;19;20014;-75
2024/01/25 01:20:46;;;;;;;2.08;1.10;;;18.20;99.90;;;;;;4589205;19;20044;-75
2024/01/25 01:22:24;;;;;;;4.45;1.00;;;18.20;99.90;;;;;;4590285;19;20018;-75
2024/01/25 01:24:05;;;;;;;2.35;0.90;;;18.20;99.90;;;;;;4590052;19;20333;-75
2024/01/25 01:25:47;;;;;;;2.85;1.00;;;18.20;99.90;;;;;;4589982;19;20501;-75
2024/01/25 01:27:26;;;;;;;2.15;0.90;;;18.20;99.90;;;;;;4590566;19;20026;-75
2024/01/25 01:29:05;;;;;;;2.42;1.08;;;18.20;99.90;;;;;;4590082;19;20014;-74
2024/01/25 01:30:45;;;;;;;3.15;1.10;;;18.30;99.90;;;;;;4589329;19;20014;-75
2024/01/25 01:32:23;;;;;;;2.55;1.00;;;18.20;99.90;;;;;;4590478;19;20010;-75
2024/01/25 01:34:02;;;;;;;2.30;1.00;;;18.30;99.90;;;;;;4589801;19;20438;-75
2024/01/25 01:35:41;;;;;;;2.33;0.90;;;18.30;99.90;;;;;;4589675;19;20015;-74
2024/01/25 01:37:21;;;;;;;2.70;1.20;;;18.30;99.90;;;;;;4590132;19;20033;-75
2024/01/25 01:39:04;;;;;;;2.03;0.95;;;18.30;99.90;;;;;;4589792;19;20010;-75
2024/01/25 01:40:46;;;;;;;1.20;0.80;;;18.30;99.90;;;;;;4589082;19;20031;-75
2024/01/25 01:42:25;;;;;;;3.13;1.05;;;18.30;99.90;;;;;;4590365;19;20010;-74
2024/01/25 01:44:05;;;;;;;3.47;0.93;;;18.30;99.90;;;;;;4589654;19;20088;-75
2024/01/25 01:45:45;;;;;;;1.98;0.88;;;18.30;99.90;;;;;;4594284;19;20038;-75
2024/01/25 01:47:24;;;;;;;1.73;0.80;;;18.30;99.90;;;;;;4595024;19;20354;-75
2024/01/25 01:49:04;;;;;;;3.30;0.93;;;18.30;99.90;;;;;;4594240;19;20014;-75
2024/01/25 01:50:43;;;;;;;2.55;0.75;;;18.30;99.90;;;;;;4593485;19;20014;-75
2024/01/25 01:52:21;;;;;;;1.95;0.90;;;18.30;99.90;;;;;;4594780;19;20010;-75
2024/01/25 01:54:00;;;;;;;1.65;0.80;;;18.40;99.90;;;;;;4594151;19;20091;-75
2024/01/25 01:55:40;;;;;;;1.13;0.52;;;18.30;99.90;;;;;;4594238;19;20446;-74
2024/01/25 01:57:19;;;;;;;2.30;0.88;;;18.30;99.90;;;;;;4594697;19;20299;-75
2024/01/25 01:58:59;;;;;;;1.55;0.85;;;18.30;99.90;;;;;;4593994;19;20345;-75
2024/01/25 02:00:41;;;;;;;1.67;0.85;;;18.30;99.90;;;;;;4593469;19;20011;-75
2024/01/25 02:02:19;;;;;;;1.67;0.90;;;18.30;99.90;;;;;;4594383;19;20018;-75
2024/01/25 02:03:58;;;;;;;1.90;0.90;;;18.30;99.90;;;;;;4593921;19;20108;-75
2024/01/25 02:05:38;;;;;;;1.92;0.75;;;18.30;99.90;;;;;;4594048;19;20015;-74
2024/01/25 02:07:17;;;;;;;1.52;0.90;;;18.30;99.90;;;;;;4594441;19;20457;-75
2024/01/25 02:08:59;;;;;;;1.45;0.75;;;18.30;99.90;;;;;;4593859;19;20007;-75
2024/01/25 02:10:39;;;;;;;2.03;0.82;;;18.30;99.90;;;;;;4593342;19;20425;-75
2024/01/25 02:12:19;;;;;;;3.65;1.05;;;18.30;99.90;;;;;;4593299;19;20322;-75
2024/01/25 02:13:57;;;;;;;2.72;0.90;;;18.30;99.90;;;;;;4591692;19;20011;-75
2024/01/25 02:15:37;;;;;;;2.38;1.10;;;18.40;99.90;;;;;;4593781;19;20010;-75
2024/01/25 02:17:15;;;;;;;3.63;0.98;;;18.40;99.90;;;;;;4594298;19;20023;-75
2024/01/25 02:18:57;;;;;;;1.05;0.63;;;18.40;99.90;;;;;;4593553;19;20081;-75
2024/01/25 02:20:36;;;;;;;2.10;1.02;;;18.40;99.90;;;;;;4593159;19;20014;-75
2024/01/25 02:22:18;;;;;;;1.75;0.80;;;18.40;99.90;;;;;;4593994;19;20003;-75
2024/01/25 02:23:58;;;;;;;2.42;0.80;;;18.40;99.90;;;;;;4593451;19;20010;-75
2024/01/25 02:25:39;;;;;;;1.27;0.60;;;18.40;99.90;;;;;;4593689;19;20014;-75
2024/01/25 02:27:19;;;;;;;2.15;0.70;;;18.40;99.90;;;;;;4594239;19;20036;-75
2024/01/25 02:29:00;;;;;;;0.83;0.57;;;18.40;99.90;;;;;;4593383;19;20099;-75
2024/01/25 02:30:41;;;;;;;1.45;0.80;;;18.40;99.90;;;;;;4592965;19;20015;-75
2024/01/25 02:32:21;;;;;;;1.63;0.90;;;18.40;99.90;;;;;;4593973;19;20295;-75
2024/01/25 02:33:57;;;;;;;1.27;0.70;;;18.40;99.90;;;;;;4593391;19;20441;-75
2024/01/25 02:35:33;;;;;;;1.85;0.75;;;18.40;99.90;;;;;;4594750;19;20010;-75
2024/01/25 02:37:14;;;;;;;1.50;0.70;;;18.40;99.90;;;;;;4593731;19;20496;-75
2024/01/25 02:38:52;;;;;;;1.47;0.73;;;18.40;99.90;;;;;;4593538;19;20006;-75
2024/01/25 02:40:30;;;;;;;2.20;0.93;;;18.40;99.90;;;;;;4593080;19;20745;-75
2024/01/25 02:42:09;;;;;;;1.83;0.70;;;18.40;99.90;;;;;;4593532;19;20037;-75
2024/01/25 02:43:48;;;;;;;1.25;1.02;;;18.40;99.90;;;;;;4593364;19;20003;-75
2024/01/25 02:45:27;;;;;;;1.85;0.85;;;18.40;99.90;;;;;;4593214;19;20086;-75
2024/01/25 02:47:06;;;;;;;1.80;0.75;;;18.50;99.90;;;;;;4593425;19;20006;-75
2024/01/25 02:48:45;;;;;;;1.38;0.80;;;18.50;99.90;;;;;;4593180;19;20030;-75
2024/01/25 02:50:24;;;;;;;2.03;1.10;;;18.50;99.90;;;;;;4592751;19;20011;-75
2024/01/25 02:52:03;;;;;;;1.27;0.70;;;18.50;99.90;;;;;;4593387;19;19999;-75
2024/01/25 02:53:42;;;;;;;1.25;0.70;;;18.50;99.90;;;;;;4593103;19;20013;-75
2024/01/25 02:55:22;;;;;;;1.23;0.70;;;18.50;99.90;;;;;;4592657;19;20038;-75
2024/01/25 02:57:00;;;;;;;1.00;0.60;;;18.50;99.90;;;;;;4591616;19;20003;-75
2024/01/25 02:58:40;;;;;;;2.45;0.63;;;18.50;99.90;;;;;;4593038;19;20017;-75
2024/01/25 03:00:20;;;;;;;1.07;0.60;;;18.50;99.90;;;;;;4592453;19;20371;-75
2024/01/25 03:02:00;;;;;;;1.38;0.57;;;18.50;99.90;;;;;;4593245;19;20024;-75
2024/01/25 03:03:40;;;;;;;;;;;18.50;99.90;;;;;;4593864;19;20014;-75
2024/01/25 03:05:21;;;;;;;1.60;0.70;;;18.50;99.90;;;;;;4592774;19;19928;-75
2024/01/25 03:07:01;;;;;;;1.15;0.65;;;18.50;99.90;;;;;;4592747;19;20342;-75
2024/01/25 03:08:41;;;;;;;0.93;0.60;;;18.50;99.90;;;;;;4592962;19;20338;-75
2024/01/25 03:10:20;;;;;;;0.90;0.65;;;18.50;99.90;;;;;;4592237;19;20018;-75
2024/01/25 03:11:59;;;;;;;3.28;0.80;;;18.50;99.90;;;;;;4593063;19;20034;-75
2024/01/25 03:13:38;;;;;;;1.17;0.68;;;18.50;99.90;;;;;;4592397;19;20011;-75
2024/01/25 03:15:17;;;;;;;1.02;0.70;;;18.50;99.90;;;;;;4590492;19;20015;-75
2024/01/25 03:16:55;;;;;;;1.60;0.70;;;18.50;99.90;;;;;;4591025;19;20018;-75
2024/01/25 03:18:37;;;;;;;1.63;0.73;;;18.60;99.90;;;;;;4592705;19;20328;-75
2024/01/25 03:20:17;;;;;;;;;;;18.60;99.90;;;;;;4592877;19;20054;-74
2024/01/25 03:21:58;;;;;;;1.08;0.60;;;18.50;99.90;;;;;;4592952;19;19914;-75
2024/01/25 03:23:41;;;;;;;1.80;0.60;;;18.60;99.90;;;;;;4592445;19;20348;-75
2024/01/25 03:25:25;;;;;;;1.20;0.50;;;18.60;99.90;;;;;;4592721;19;20046;-75
2024/01/25 03:27:04;;;;;;;2.58;0.95;;;18.60;99.90;;;;;;4592609;19;20006;-75
2024/01/25 03:28:43;;;;;;;1.48;0.90;;;18.60;99.90;;;;;;4592559;19;20353;-75
2024/01/25 03:30:22;;;;;;;1.63;0.50;;;18.60;99.90;;;;;;4591672;19;20022;-75
2024/01/25 03:32:01;;;;;;;1.75;0.93;;;18.50;99.90;;;;;;4592680;19;20531;-75
2024/01/25 03:33:40;;;;;;;1.70;0.70;;;18.60;99.90;;;;;;4592311;19;20006;-75
2024/01/25 03:35:21;;;;;;;0.98;0.70;;;18.60;99.90;;;;;;4591891;19;20038;-75
2024/01/25 03:37:01;;;;;;;1.15;0.52;;;18.60;99.90;;;;;;4592565;19;20010;-75
2024/01/25 03:38:40;;;;;;;2.08;0.80;;;18.60;99.90;;;;;;4592543;19;20318;-75
2024/01/25 03:40:20;;;;;;;0.93;0.50;;;18.60;99.90;;;;;;4591547;19;20074;-75
2024/01/25 03:41:58;;;;;;;1.60;0.68;;;18.60;99.90;;;;;;4592668;19;20006;-75
2024/01/25 03:43:34;;;;;;;1.30;0.50;;;18.60;99.90;;;;;;4591243;19;20022;-75
2024/01/25 03:45:12;;;;;;;2.95;0.70;;;18.60;99.90;;;;;;4593141;19;20025;-75
2024/01/25 03:46:52;;;;;;;1.30;0.60;;;18.60;99.90;;;;;;4592564;19;20017;-75
2024/01/25 03:48:32;;;;;;;2.03;0.70;;;18.60;99.90;;;;;;4591813;19;20014;-75
2024/01/25 03:50:14;;;;;;;1.55;0.90;;;18.60;99.90;;;;;;4591398;19;20086;-75
2024/01/25 03:51:53;;;;;;;1.58;0.60;;;18.60;99.90;;;;;;4592411;19;20081;-75
2024/01/25 03:53:33;;;;;;;2.15;0.90;;;18.60;99.90;;;;;;4591643;19;20011;-75
2024/01/25 03:55:12;;;;;;;1.90;0.70;;;18.60;99.90;;;;;;4591668;19;20007;-75
2024/01/25 03:56:52;;;;;;;1.55;0.77;;;18.60;99.90;;;;;;4592333;19;20086;-75
2024/01/25 03:58:34;;;;;;;1.80;0.63;;;18.60;99.90;;;;;;4591685;19;20030;-75
2024/01/25 04:00:16;;;;;;;1.50;0.60;;;18.50;99.90;;;;;;4591366;19;20441;-74
2024/01/25 04:01:55;;;;;;;3.03;0.73;;;18.60;99.90;;;;;;4591719;19;20011;-74
2024/01/25 04:03:34;;;;;;;1.67;0.75;;;18.50;99.90;;;;;;4591453;19;20017;-75
2024/01/25 04:05:13;;;;;;;2.33;0.70;;;18.50;99.90;;;;;;4591435;19;20318;-75
2024/01/25 04:06:51;;;;;;;1.30;0.60;;;18.50;99.90;;;;;;4592108;19;20434;-75
2024/01/25 04:08:30;;;;;;;1.85;0.90;;;18.40;99.90;;;;;;4591285;19;20018;-75
2024/01/25 04:10:10;;;;;;;2.42;0.75;;;18.40;99.90;;;;;;4591517;19;20014;-75
2024/01/25 04:11:49;;;;;;;1.10;0.73;;;18.40;99.90;;;;;;4591768;19;20003;-75
2024/01/25 04:13:28;;;;;;;1.85;0.60;;;18.40;99.90;;;;;;4591243;19;20441;-75
2024/01/25 04:15:09;;;;;;;1.02;0.60;;;18.30;99.90;;;;;;4591431;19;20078;-75
2024/01/25 04:16:50;;;;;;;1.40;0.73;;;18.30;99.90;;;;;;4591813;19;20002;-75
2024/01/25 04:18:28;;;;;;;1.70;0.90;;;18.30;99.90;;;;;;4590060;19;20379;-75
2024/01/25 04:20:09;;;;;;;2.80;0.70;;;18.30;99.90;;;;;;4590006;19;20376;-75
2024/01/25 04:21:48;;;;;;;1.35;0.68;;;18.30;99.90;;;;;;4589837;19;20016;-75
2024/01/25 04:23:23;;;;;;;1.48;0.57;;;18.30;99.90;;;;;;4589499;19;20349;-75
2024/01/25 04:25:00;;;;;;;1.38;0.55;;;18.30;99.90;;;;;;4591083;19;20045;-75
2024/01/25 04:26:37;;;;;;;1.27;0.47;;;18.20;99.90;;;;;;4589378;19;20032;-75
2024/01/25 04:28:16;;;;;;;0.90;0.60;;;18.20;99.90;;;;;;4589566;19;20326;-75
2024/01/25 04:29:55;;;;;;;1.25;0.90;;;18.20;99.90;;;;;;4589494;19;20380;-75
2024/01/25 04:31:34;;;;;;;2.08;0.60;;;18.20;99.90;;;;;;4589993;19;20181;-75
2024/01/25 04:33:13;;;;;;;1.30;0.68;;;18.20;99.90;;;;;;4589392;19;20014;-75
2024/01/25 04:34:52;;;;;;;1.90;0.60;;;18.20;99.90;;;;;;4589607;19;20038;-75
2024/01/25 04:36:32;;;;;;;1.90;0.70;;;18.20;99.90;;;;;;4589795;19;20033;-75
2024/01/25 04:38:12;;;;;;;1.67;0.73;;;18.10;99.90;;;;;;4589544;19;20014;-75
2024/01/25 04:39:51;;;;;;;3.28;0.70;;;18.10;99.90;;;;;;4589235;19;20021;-75
2024/01/25 04:41:30;;;;;;;1.90;0.88;;;18.10;99.90;;;;;;4589322;19;20549;-75
2024/01/25 04:43:08;;;;;;;1.48;0.82;;;18.10;99.90;;;;;;4589085;19;20010;-75
2024/01/25 04:44:48;;;;;;;1.88;0.75;;;18.10;99.90;;;;;;4589478;19;20336;-75
2024/01/25 04:46:22;;;;;;;1.48;0.75;;;18.10;99.90;;;;;;4587835;19;20021;-75
2024/01/25 04:48:00;;;;;;;3.85;1.33;;;18.00;99.90;;;;;;4590285;19;20014;-75
2024/01/25 04:49:39;;;;;;;3.08;1.00;;;18.00;99.90;;;;;;4588759;19;20026;-75
2024/01/25 04:51:19;;;;;;;1.27;0.70;;;18.10;99.90;;;;;;4589609;19;20077;-75
2024/01/25 04:52:58;;;;;;;1.38;0.50;;;18.20;99.90;;;;;;4590708;19;20034;-75
2024/01/25 04:54:37;;;;;;;0.95;0.52;;;18.30;99.90;;;;;;4590451;19;20010;-75
2024/01/25 04:56:16;;;;;;;1.55;0.70;;;18.40;99.90;;;;;;4591113;19;20340;-76
2024/01/25 04:57:55;;;;;;;2.97;0.75;;;18.60;99.90;;;;;;4590688;19;20078;-75
2024/01/25 04:59:34;;;;;;;2.80;0.75;;;18.70;99.90;;;;;;4590395;19;20010;-75
2024/01/25 05:01:15;;;;;;;2.78;0.68;;;18.80;99.90;;;;;;4590105;19;20359;-75
2024/01/25 05:02:55;;;;;;;1.95;0.60;;;18.80;99.90;;;;;;4590538;19;20334;-75
2024/01/25 05:04:35;;;;;;;1.27;0.60;;;18.90;99.90;;;;;;4590423;19;20015;-75
2024/01/25 05:06:13;;;;;;;2.45;0.98;;;19.00;99.90;;;;;;4590654;19;20013;-75
2024/01/25 05:07:53;;;;;;;3.17;0.63;;;19.10;99.90;;;;;;4590368;19;20027;-75
2024/01/25 05:09:32;;;;;;;3.85;0.93;;;19.10;99.90;;;;;;4590171;19;20014;-75
2024/01/25 05:11:12;;;;;;;5.28;0.93;;;19.20;99.90;;;;;;4589664;19;20006;-75
2024/01/25 05:12:51;;;;;;;2.38;0.80;;;19.20;99.90;;;;;;4589972;19;20081;-75
2024/01/25 05:14:30;;;;;;;4.15;1.10;;;19.20;99.90;;;;;;4589923;19;20038;-75
2024/01/25 05:16:04;;;;;;;3.00;1.23;;;19.20;99.90;;;;;;4590358;19;20070;-75
2024/01/25 05:17:40;;;;;;;5.45;1.17;;;19.30;99.90;;;;;;4591103;19;20010;-75
2024/01/25 05:19:20;;;;;;;5.70;1.08;;;19.20;99.90;;;;;;4590826;19;20042;-75
2024/01/25 05:20:58;;;;;;;5.63;2.33;;;19.20;99.90;;;;;;4594149;19;20070;-75
2024/01/25 05:22:40;;;;;;;6.10;2.30;;;19.20;99.90;;;;;;4593756;19;20014;-75
2024/01/25 05:24:19;;;;;;;9.63;2.95;;;19.20;99.90;;;;;;4594755;19;20021;-74
2024/01/25 05:25:58;;;;;;;21.40;4.10;;;19.20;99.90;;;;;;4594984;19;20006;-75
2024/01/25 05:27:37;;;;;;;14.82;5.53;;;19.20;99.90;;;;;;4594589;19;20015;-75
2024/01/25 05:29:16;;;;;;;16.02;4.63;;;19.10;99.90;;;;;;4594729;19;20014;-75
2024/01/25 05:30:52;;;;;;;17.33;6.03;;;19.10;99.90;;;;;;4593959;19;20014;-75
2024/01/25 05:32:29;;;;;;;18.80;6.30;;;19.10;99.90;;;;;;4595583;19;20007;-75
2024/01/25 05:34:09;;;;;;;23.30;6.90;;;19.00;99.90;;;;;;4594540;19;20448;-75
2024/01/25 05:35:47;;;;;;;19.58;7.47;;;18.90;99.90;;;;;;4594839;19;20007;-75
2024/01/25 05:37:27;;;;;;;17.08;6.25;;;19.00;99.90;;;;;;4594491;19;20350;-74
2024/01/25 05:39:06;;;;;;;23.25;7.88;;;19.00;99.90;;;;;;4594381;19;20006;-75
2024/01/25 05:40:44;;;;;;;20.23;6.18;;;19.10;99.90;;;;;;4593747;19;20090;-75
2024/01/25 05:42:24;;;;;;;18.10;6.22;;;19.10;99.90;;;;;;4594504;19;20023;-75
2024/01/25 05:44:03;;;;;;;17.80;6.50;;;19.30;99.90;;;;;;4594355;19;20017;-74
2024/01/25 05:45:43;;;;;;;21.50;7.10;;;19.40;99.90;;;;;;4594400;19;20030;-75
2024/01/25 05:47:25;;;;;;;16.40;6.85;;;19.50;99.90;;;;;;4594367;19;20378;-74
2024/01/25 05:49:06;;;;;;;20.40;6.70;;;19.60;99.90;;;;;;4594110;19;20007;-74
2024/01/25 05:50:44;;;;;;;18.85;7.05;;;19.80;99.90;;;;;;4593416;19;20037;-75
2024/01/25 05:52:23;;;;;;;20.65;6.43;;;19.80;99.90;;;;;;4591835;19;20015;-75
2024/01/25 05:54:03;;;;;;;16.10;6.32;;;20.00;99.90;;;;;;4591619;19;20011;-75
2024/01/25 05:55:41;;;;;;;19.70;6.85;;;20.10;99.90;;;;;;4594263;19;20086;-75
2024/01/25 05:57:20;;;;;;;16.42;6.57;;;20.20;99.90;;;;;;4593935;19;20013;-75
2024/01/25 05:58:59;;;;;;;17.55;6.40;;;20.30;99.90;;;;;;4593843;19;20024;-75
2024/01/25 06:00:38;;;;;;;19.13;7.63;;;20.30;99.90;;;;;;4593417;19;20024;-75
2024/01/25 06:02:18;;;;;;;17.25;6.95;;;20.40;99.90;;;;;;4593917;19;20006;-75
2024/01/25 06:03:58;;;;;;;17.75;6.60;;;20.50;99.90;;;;;;4593724;19;20127;-75
2024/01/25 06:05:37;;;;;;;14.93;6.65;;;20.50;99.90;;;;;;4593898;19;20014;-75
2024/01/25 06:07:16;;;;;;;18.90;7.43;;;20.60;99.90;;;;;;4594013;19;20011;-75
2024/01/25 06:08:55;;;;;;;15.65;6.30;;;20.70;99.90;;;;;;4593603;19;20011;-75
2024/01/25 06:10:34;;;;;;;15.95;5.80;;;20.70;99.90;;;;;;4593502;19;20014;-74
2024/01/25 06:12:14;;;;;;;20.05;7.35;;;20.70;99.90;;;;;;4593694;19;20090;-75
2024/01/25 06:13:54;;;;;;;16.80;6.88;;;20.80;99.90;;;;;;4593527;19;20389;-75
2024/01/25 06:15:28;;;;;;;18.02;7.88;;;20.80;99.90;;;;;;4594139;19;20036;-74
2024/01/25 06:17:04;;;;;;;15.15;5.75;;;20.80;99.90;;;;;;4594756;19;20426;-74
2024/01/25 06:18:43;;;;;;;15.50;6.45;;;20.80;99.90;;;;;;4593282;19;20010;-74
2024/01/25 06:20:34;;;;;;;17.97;6.90;;;20.70;99.90;;;;;;4590813;19;20430;-74
2024/01/25 06:22:16;;;;;;;16.90;7.05;;;20.70;99.90;;;;;;4592890;19;20011;-74
2024/01/25 06:23:55;;;;;;;16.35;6.72;;;20.60;99.90;;;;;;4592320;19;20039;-75
2024/01/25 06:25:35;;;;;;;15.10;6.28;;;20.60;99.90;;;;;;4592431;19;20347;-75
2024/01/25 06:27:13;;;;;;;16.67;7.32;;;20.50;99.90;;;;;;4592742;19;20014;-75
2024/01/25 06:28:53;;;;;;;19.20;6.50;;;20.50;99.90;;;;;;4592385;19;20094;-75
2024/01/25 06:30:32;;;;;;;20.15;7.10;;;20.40;99.90;;;;;;4591975;19;20750;-74
2024/01/25 06:32:10;;;;;;;19.20;7.80;;;20.40;99.90;;;;;;4592674;19;20405;-75
2024/01/25 06:33:50;;;;;;;16.95;8.10;;;20.30;99.90;;;;;;4592290;19;20024;-75
2024/01/25 06:35:28;;;;;;;17.27;7.28;;;20.30;99.90;;;;;;4592810;19;20006;-75
2024/01/25 06:37:07;;;;;;;16.52;7.05;;;20.20;99.90;;;;;;4592359;19;20011;-74
2024/01/25 06:38:46;;;;;;;23.90;7.50;;;20.10;99.90;;;;;;4591928;19;20018;-74
2024/01/25 06:40:26;;;;;;;19.50;6.95;;;20.10;99.90;;;;;;4591810;19;20011;-74
2024/01/25 06:42:05;;;;;;;16.00;6.47;;;20.00;99.90;;;;;;4592445;19;20009;-75
2024/01/25 06:43:45;;;;;;;19.77;7.15;;;20.00;99.90;;;;;;4592185;19;20014;-74
2024/01/25 06:45:25;;;;;;;19.33;7.20;;;19.90;99.90;;;;;;4592030;19;20010;-74
2024/01/25 06:47:03;;;;;;;16.38;6.78;;;19.90;99.90;;;;;;4592405;19;20461;-73
2024/01/25 06:48:42;;;;;;;20.13;7.50;;;19.80;99.90;;;;;;4592080;19;20022;-73
2024/01/25 06:50:22;;;;;;;1.38;1.27;;;19.80;99.90;;;;;;4591712;19;20006;-73
2024/01/25 06:52:01;;;;;;;2.30;1.50;;;19.00;99.90;;;;;;4591904;19;20010;-73
2024/01/25 06:53:41;;;;;;;2.60;1.40;;;18.10;99.90;;;;;;4591166;19;20082;-73
2024/01/25 06:55:21;;;;;;;1.50;0.82;;;17.60;99.90;;;;;;4590286;19;20021;-73
2024/01/25 06:56:59;;;;;;;1.48;0.65;;;17.00;99.90;;;;;;4590212;19;20015;-73
2024/01/25 06:58:38;;;;;;;4.57;2.47;;;16.60;99.90;;;;;;4590461;19;20019;-73
2024/01/25 07:00:18;;;;;;;2.65;1.10;;;16.40;99.90;;;;;;4590397;19;20019;-73
2024/01/25 07:01:59;;;;;;;2.22;1.25;;;16.20;99.90;;;;;;4591276;19;20015;-73
2024/01/25 07:03:38;;;;;;;3.97;2.05;;;16.00;99.90;;;;;;4590934;19;20019;-73
2024/01/25 07:05:17;;;;;;;4.88;2.00;;;15.80;99.90;;;;;;4590783;19;20032;-73
2024/01/25 07:07:08;;;;;;;8.35;4.60;;;15.70;99.90;;;;;;4589191;19;20019;-73
2024/01/25 07:08:47;;;;;;;10.90;5.22;;;15.50;99.90;;;;;;4590052;19;20512;-73
2024/01/25 07:10:26;;;;;;;3.53;1.10;;;15.40;99.90;;;;;;4590349;19;20011;-73
2024/01/25 07:12:05;;;;;;;5.43;2.50;;;15.30;99.90;;;;;;4591405;19;20464;-72
2024/01/25 07:13:46;;;;;;;9.23;4.97;;;15.30;99.90;;;;;;4592095;19;20023;-73
2024/01/25 07:15:26;;;;;;;4.05;1.75;;;15.20;99.90;;;;;;4591627;19;20040;-73
2024/01/25 07:17:05;;;;;;;1.15;0.68;;;15.10;99.90;;;;;;4591283;19;20461;-73
2024/01/25 07:18:44;;;;;;;1.73;0.90;;;15.00;99.90;;;;;;4591966;19;20007;-72
2024/01/25 07:20:23;;;;;;;2.17;0.85;;;15.00;99.90;;;;;;4591283;19;20013;-72
2024/01/25 07:22:02;;;;;;;3.15;1.50;;;15.00;99.90;;;;;;4591291;19;20034;-74
2024/01/25 07:23:41;;;;;;;2.17;1.05;;;15.00;99.90;;;;;;4591904;19;20002;-72
2024/01/25 07:25:20;;;;;;;3.10;1.35;;;15.00;99.90;;;;;;4591180;19;20011;-73
2024/01/25 07:26:59;;;;;;;2.17;1.27;;;15.10;99.90;;;;;;4591221;19;20104;-73
2024/01/25 07:28:38;;;;;;;3.92;1.73;;;15.10;99.90;;;;;;4591609;19;20010;-73
2024/01/25 07:30:17;;;;;;;4.72;1.38;;;15.20;99.90;;;;;;4590880;19;20018;-73
2024/01/25 07:31:57;;;;;;;2.75;1.10;;;15.20;99.90;;;;;;4591146;19;20308;-72
2024/01/25 07:33:35;;;;;;;2.25;1.25;;;15.10;99.90;;;;;;4591376;19;20006;-73
2024/01/25 07:35:14;;;;;;;2.60;1.30;;;15.00;99.90;;;;;;4591102;19;20016;-73
2024/01/25 07:36:50;;;;;;;2.65;1.40;;;15.10;99.90;;;;;;4591683;19;20002;-72
2024/01/25 07:38:29;;;;;;;3.35;1.05;;;15.00;99.90;;;;;;4591410;19;20031;-72
2024/01/25 07:40:09;;;;;;;3.15;1.15;;;15.00;99.90;;;;;;4590782;19;20043;-73
2024/01/25 07:41:48;;;;;;;3.72;1.17;;;15.00;99.90;;;;;;4589223;19;20010;-73
2024/01/25 07:43:27;;;;;;;2.20;0.80;;;15.00;99.90;;;;;;4590605;19;20100;-73
2024/01/25 07:45:06;;;;;;;4.55;2.15;;;15.00;99.90;;;;;;4591248;19;20319;-73
2024/01/25 07:46:46;;;;;;;2.88;1.50;;;15.00;99.90;;;;;;4591824;19;20502;-73
2024/01/25 07:48:24;;;;;;;1.33;0.80;;;14.90;99.90;;;;;;4591672;19;20031;-73
2024/01/25 07:50:03;;;;;;;2.70;1.35;;;14.80;99.90;;;;;;4591534;19;20025;-73
2024/01/25 07:51:42;;;;;;;3.55;1.27;;;14.80;99.90;;;;;;4591822;19;20331;-73
2024/01/25 07:53:20;;;;;;;3.47;1.05;;;14.70;99.90;;;;;;4591723;19;20007;-73
2024/01/25 07:55:00;;;;;;;1.73;0.68;;;14.70;99.90;;;;;;4591691;19;20011;-72
2024/01/25 07:56:40;;;;;;;3.45;1.10;;;14.70;99.90;;;;;;4591563;19;20364;-74
2024/01/25 07:58:31;;;;;;;3.88;1.90;;;14.70;99.90;;;;;;4589271;19;20101;-73
2024/01/25 08:00:09;;;;;;;2.55;1.17;;;14.70;99.90;;;;;;4590739;19;20081;-73
2024/01/25 08:01:49;;;;;;;2.05;1.10;;;14.70;99.90;;;;;;4589382;19;20522;-72
2024/01/25 08:03:28;;;;;;;3.55;0.98;;;14.60;99.90;;;;;;4590157;19;20003;-71
2024/01/25 08:05:07;;;;;;;17.27;8.93;;;14.60;99.90;;;;;;4590413;19;20016;-71
2024/01/25 08:06:46;;;;;;;4.38;2.00;;;14.60;99.90;;;;;;4590637;19;20011;-72
2024/01/25 08:08:27;;;;;;;2.78;1.10;;;14.60;99.90;;;;;;4590293;19;20035;-72
2024/01/25 08:10:21;;;;;;;4.53;2.30;;;14.50;99.90;;;;;;4587100;19;20018;-77
2024/01/25 08:12:33;;;;;;;3.20;1.30;;;14.50;99.90;;;;;;4588046;19;20039;-77
2024/01/25 08:14:14;;;;;;;4.45;2.40;;;14.50;99.90;;;;;;4588489;19;20010;-78
2024/01/25 08:15:55;;;;;;;3.28;1.92;;;14.50;99.90;;;;;;4588487;19;20014;-76
2024/01/25 08:19:26;;;;;;;;;;;14.40;99.90;;;;;;4408201;19;20094;-75
2024/01/25 08:21:01;;;;;;;4.97;3.53;;;14.50;99.90;;;;;;4592643;19;19929;-72
2024/01/25 08:22:35;;;;;;;6.57;4.18;;;14.60;99.90;;;;;;4592745;19;20009;-71
2024/01/25 08:24:10;;;;;;;7.95;6.47;;;14.60;99.90;;;;;;4592796;19;20006;-70
2024/01/25 08:25:46;;;;;;;6.45;5.28;;;14.60;99.90;;;;;;4593091;19;20382;-70
2024/01/25 08:27:20;;;;;;;14.02;12.52;;;14.50;99.90;;;;;;4592813;19;20002;-71
2024/01/25 08:28:54;;;;;;;4.10;2.13;;;14.50;99.90;;;;;;4590493;19;20070;-71
2024/01/25 08:30:31;;;;;;;2.60;1.67;;;14.40;99.90;;;;;;4592887;19;20006;-71
2024/01/25 08:32:05;;;;;;;3.88;2.33;;;14.40;99.90;;;;;;4592875;19;20002;-70
2024/01/25 08:33:47;;;;;;;3.10;1.13;;;14.40;99.90;;;;;;4592802;19;19998;-70
2024/01/25 08:35:23;;;;;;;4.43;2.25;;;14.30;99.90;;;;;;4592815;19;20425;-69
2024/01/25 08:36:57;;;;;;;6.30;4.78;;;14.30;99.90;;;;;;4592885;19;20009;-69
2024/01/25 08:38:32;;;;;;;3.63;1.70;;;14.40;99.90;;;;;;4592043;19;20022;-71
2024/01/25 08:40:07;;;;;;;2.67;1.95;;;14.30;99.90;;;;;;4593332;19;20002;-74
2024/01/25 08:41:42;;;;;;;3.60;1.67;;;14.30;99.90;;;;;;4591741;19;20020;-74
2024/01/25 08:43:17;;;;;;;3.40;1.42;;;14.20;99.90;;;;;;4591328;19;19995;-74